sensor_id;sensor_type;location;lat;lon;timestamp;P1;durP1;ratioP1;P2;durP2;ratioP2
29044;SDS011;16133;49.486;12.176;2024-03-08T00:00:16;62.85;;;23.52;;
29044;SDS011;16133;49.486;12.176;2024-03-08T00:02:43;67.00;;;23.63;;
29044;SDS011;16133;49.486;12.176;2024-03-08T00:05:12;58.97;;;22.63;;
29044;SDS011;16133;49.486;12.176;2024-03-08T00:07:38;53.72;;;22.02;;
29044;SDS011;16133;49.486;12.176;2024-03-08T00:10:05;64.15;;;24.33;;
29044;SDS011;16133;49.486;12.176;2024-03-08T00:12:36;56.67;;;23.63;;
29044;SDS011;16133;49.486;12.176;2024-03-08T00:15:10;62.50;;;24.15;;
29044;SDS011;16133;49.486;12.176;2024-03-08T00:17:42;70.00;;;24.92;;
29044;SDS011;16133;49.486;12.176;2024-03-08T00:20:08;65.45;;;24.73;;
29044;SDS011;16133;49.486;12.176;2024-03-08T00:22:34;78.40;;;27.55;;
29044;SDS011;16133;49.486;12.176;2024-03-08T00:25:01;56.97;;;23.38;;
29044;SDS011;16133;49.486;12.176;2024-03-08T00:27:27;65.53;;;24.77;;
29044;SDS011;16133;49.486;12.176;2024-03-08T00:29:53;58.10;;;23.33;;
29044;SDS011;16133;49.486;12.176;2024-03-08T00:32:19;64.47;;;24.60;;
29044;SDS011;16133;49.486;12.176;2024-03-08T00:34:44;59.30;;;22.42;;
29044;SDS011;16133;49.486;12.176;2024-03-08T00:37:09;59.70;;;22.27;;
29044;SDS011;16133;49.486;12.176;2024-03-08T00:39:35;66.72;;;24.08;;
29044;SDS011;16133;49.486;12.176;2024-03-08T00:42:00;58.72;;;22.38;;
29044;SDS011;16133;49.486;12.176;2024-03-08T00:44:25;58.90;;;22.45;;
29044;SDS011;16133;49.486;12.176;2024-03-08T00:46:51;59.22;;;23.08;;
29044;SDS011;16133;49.486;12.176;2024-03-08T00:49:16;61.95;;;22.35;;
29044;SDS011;16133;49.486;12.176;2024-03-08T00:51:42;56.85;;;21.92;;
29044;SDS011;16133;49.486;12.176;2024-03-08T00:54:08;53.40;;;21.80;;
29044;SDS011;16133;49.486;12.176;2024-03-08T00:56:34;59.28;;;22.88;;
29044;SDS011;16133;49.486;12.176;2024-03-08T00:59:00;68.43;;;24.15;;
29044;SDS011;16133;49.486;12.176;2024-03-08T01:01:27;59.72;;;24.48;;
29044;SDS011;16133;49.486;12.176;2024-03-08T01:03:53;64.82;;;23.88;;
29044;SDS011;16133;49.486;12.176;2024-03-08T01:06:18;57.08;;;24.02;;
29044;SDS011;16133;49.486;12.176;2024-03-08T01:08:43;76.50;;;28.30;;
29044;SDS011;16133;49.486;12.176;2024-03-08T01:11:09;63.55;;;25.35;;
29044;SDS011;16133;49.486;12.176;2024-03-08T01:13:36;67.82;;;25.75;;
29044;SDS011;16133;49.486;12.176;2024-03-08T01:16:01;71.03;;;27.08;;
29044;SDS011;16133;49.486;12.176;2024-03-08T01:18:29;63.25;;;25.17;;
29044;SDS011;16133;49.486;12.176;2024-03-08T01:20:55;66.15;;;25.08;;
29044;SDS011;16133;49.486;12.176;2024-03-08T01:23:20;67.45;;;26.10;;
29044;SDS011;16133;49.486;12.176;2024-03-08T01:25:46;63.60;;;24.35;;
29044;SDS011;16133;49.486;12.176;2024-03-08T01:28:11;62.47;;;23.45;;
29044;SDS011;16133;49.486;12.176;2024-03-08T01:30:37;65.05;;;25.15;;
29044;SDS011;16133;49.486;12.176;2024-03-08T01:33:03;67.65;;;26.95;;
29044;SDS011;16133;49.486;12.176;2024-03-08T01:35:29;69.32;;;26.08;;
29044;SDS011;16133;49.486;12.176;2024-03-08T01:37:54;67.40;;;25.00;;
29044;SDS011;16133;49.486;12.176;2024-03-08T01:40:20;65.90;;;25.85;;
29044;SDS011;16133;49.486;12.176;2024-03-08T01:42:45;72.13;;;26.40;;
29044;SDS011;16133;49.486;12.176;2024-03-08T01:45:11;67.93;;;28.33;;
29044;SDS011;16133;49.486;12.176;2024-03-08T01:47:36;75.57;;;28.15;;
29044;SDS011;16133;49.486;12.176;2024-03-08T01:50:02;77.97;;;27.73;;
29044;SDS011;16133;49.486;12.176;2024-03-08T01:52:31;69.05;;;24.98;;
29044;SDS011;16133;49.486;12.176;2024-03-08T01:54:58;65.75;;;27.15;;
29044;SDS011;16133;49.486;12.176;2024-03-08T01:57:27;61.17;;;24.55;;
29044;SDS011;16133;49.486;12.176;2024-03-08T01:59:53;69.63;;;26.80;;
29044;SDS011;16133;49.486;12.176;2024-03-08T02:02:20;78.25;;;30.58;;
29044;SDS011;16133;49.486;12.176;2024-03-08T02:04:47;78.65;;;28.17;;
29044;SDS011;16133;49.486;12.176;2024-03-08T02:07:13;80.78;;;29.70;;
29044;SDS011;16133;49.486;12.176;2024-03-08T02:09:38;80.22;;;30.85;;
29044;SDS011;16133;49.486;12.176;2024-03-08T02:12:04;73.32;;;28.42;;
29044;SDS011;16133;49.486;12.176;2024-03-08T02:14:30;74.78;;;30.27;;
29044;SDS011;16133;49.486;12.176;2024-03-08T02:16:59;80.25;;;28.73;;
29044;SDS011;16133;49.486;12.176;2024-03-08T02:19:25;80.00;;;30.60;;
29044;SDS011;16133;49.486;12.176;2024-03-08T02:21:51;78.93;;;28.98;;
29044;SDS011;16133;49.486;12.176;2024-03-08T02:24:16;79.13;;;29.35;;
29044;SDS011;16133;49.486;12.176;2024-03-08T02:26:42;69.55;;;28.58;;
29044;SDS011;16133;49.486;12.176;2024-03-08T02:29:07;70.97;;;26.60;;
29044;SDS011;16133;49.486;12.176;2024-03-08T02:31:33;81.38;;;29.60;;
29044;SDS011;16133;49.486;12.176;2024-03-08T02:33:59;79.97;;;28.27;;
29044;SDS011;16133;49.486;12.176;2024-03-08T02:36:24;71.93;;;28.33;;
29044;SDS011;16133;49.486;12.176;2024-03-08T02:38:49;73.68;;;27.40;;
29044;SDS011;16133;49.486;12.176;2024-03-08T02:41:15;91.72;;;32.75;;
29044;SDS011;16133;49.486;12.176;2024-03-08T02:43:40;70.65;;;27.08;;
29044;SDS011;16133;49.486;12.176;2024-03-08T02:46:06;78.43;;;30.60;;
29044;SDS011;16133;49.486;12.176;2024-03-08T02:48:31;68.65;;;26.88;;
29044;SDS011;16133;49.486;12.176;2024-03-08T02:50:56;76.75;;;29.27;;
29044;SDS011;16133;49.486;12.176;2024-03-08T02:53:22;67.32;;;25.95;;
29044;SDS011;16133;49.486;12.176;2024-03-08T02:55:47;93.63;;;30.38;;
29044;SDS011;16133;49.486;12.176;2024-03-08T02:58:12;89.38;;;31.23;;
29044;SDS011;16133;49.486;12.176;2024-03-08T03:00:39;89.70;;;33.13;;
29044;SDS011;16133;49.486;12.176;2024-03-08T03:03:05;75.07;;;27.17;;
29044;SDS011;16133;49.486;12.176;2024-03-08T03:05:31;73.03;;;27.25;;
29044;SDS011;16133;49.486;12.176;2024-03-08T03:07:57;74.78;;;27.23;;
29044;SDS011;16133;49.486;12.176;2024-03-08T03:10:23;66.25;;;26.75;;
29044;SDS011;16133;49.486;12.176;2024-03-08T03:12:49;75.00;;;26.83;;
29044;SDS011;16133;49.486;12.176;2024-03-08T03:15:14;71.80;;;28.17;;
29044;SDS011;16133;49.486;12.176;2024-03-08T03:17:45;69.78;;;26.70;;
29044;SDS011;16133;49.486;12.176;2024-03-08T03:20:11;70.40;;;28.05;;
29044;SDS011;16133;49.486;12.176;2024-03-08T03:22:40;59.72;;;24.42;;
29044;SDS011;16133;49.486;12.176;2024-03-08T03:25:07;63.83;;;26.23;;
29044;SDS011;16133;49.486;12.176;2024-03-08T03:27:34;69.03;;;27.20;;
29044;SDS011;16133;49.486;12.176;2024-03-08T03:30:00;70.88;;;25.75;;
29044;SDS011;16133;49.486;12.176;2024-03-08T03:32:45;71.15;;;26.77;;
29044;SDS011;16133;49.486;12.176;2024-03-08T03:35:12;74.72;;;26.55;;
29044;SDS011;16133;49.486;12.176;2024-03-08T03:37:38;74.97;;;27.67;;
29044;SDS011;16133;49.486;12.176;2024-03-08T03:40:05;74.53;;;27.13;;
29044;SDS011;16133;49.486;12.176;2024-03-08T03:42:31;65.68;;;27.20;;
29044;SDS011;16133;49.486;12.176;2024-03-08T03:44:56;73.15;;;28.88;;
29044;SDS011;16133;49.486;12.176;2024-03-08T03:47:21;88.07;;;30.95;;
29044;SDS011;16133;49.486;12.176;2024-03-08T03:49:47;76.15;;;29.92;;
29044;SDS011;16133;49.486;12.176;2024-03-08T03:52:12;82.38;;;31.27;;
29044;SDS011;16133;49.486;12.176;2024-03-08T03:54:37;101.53;;;33.65;;
29044;SDS011;16133;49.486;12.176;2024-03-08T03:57:03;95.47;;;34.40;;
29044;SDS011;16133;49.486;12.176;2024-03-08T03:59:29;97.18;;;35.28;;
29044;SDS011;16133;49.486;12.176;2024-03-08T04:01:55;98.68;;;36.28;;
29044;SDS011;16133;49.486;12.176;2024-03-08T04:04:21;105.32;;;35.90;;
29044;SDS011;16133;49.486;12.176;2024-03-08T04:06:46;116.47;;;36.58;;
29044;SDS011;16133;49.486;12.176;2024-03-08T04:09:12;104.90;;;36.47;;
29044;SDS011;16133;49.486;12.176;2024-03-08T04:11:38;107.20;;;39.28;;
29044;SDS011;16133;49.486;12.176;2024-03-08T04:14:04;113.82;;;37.95;;
29044;SDS011;16133;49.486;12.176;2024-03-08T04:16:30;108.95;;;39.83;;
29044;SDS011;16133;49.486;12.176;2024-03-08T04:18:56;117.47;;;41.08;;
29044;SDS011;16133;49.486;12.176;2024-03-08T04:21:22;125.32;;;41.78;;
29044;SDS011;16133;49.486;12.176;2024-03-08T04:23:47;110.30;;;38.22;;
29044;SDS011;16133;49.486;12.176;2024-03-08T04:26:13;113.60;;;37.47;;
29044;SDS011;16133;49.486;12.176;2024-03-08T04:28:38;118.53;;;40.67;;
29044;SDS011;16133;49.486;12.176;2024-03-08T04:31:04;110.35;;;38.22;;
29044;SDS011;16133;49.486;12.176;2024-03-08T04:33:30;112.72;;;39.22;;
29044;SDS011;16133;49.486;12.176;2024-03-08T04:35:55;112.18;;;40.05;;
29044;SDS011;16133;49.486;12.176;2024-03-08T04:38:21;111.15;;;38.15;;
29044;SDS011;16133;49.486;12.176;2024-03-08T04:40:47;103.10;;;38.58;;
29044;SDS011;16133;49.486;12.176;2024-03-08T04:43:12;99.95;;;37.03;;
29044;SDS011;16133;49.486;12.176;2024-03-08T04:45:39;98.05;;;37.20;;
29044;SDS011;16133;49.486;12.176;2024-03-08T04:48:04;97.13;;;35.17;;
29044;SDS011;16133;49.486;12.176;2024-03-08T04:50:30;102.97;;;36.40;;
29044;SDS011;16133;49.486;12.176;2024-03-08T04:52:55;98.00;;;33.47;;
29044;SDS011;16133;49.486;12.176;2024-03-08T04:55:21;99.00;;;36.22;;
29044;SDS011;16133;49.486;12.176;2024-03-08T04:57:47;98.15;;;36.50;;
29044;SDS011;16133;49.486;12.176;2024-03-08T05:00:13;99.25;;;38.40;;
29044;SDS011;16133;49.486;12.176;2024-03-08T05:02:40;91.03;;;35.10;;
29044;SDS011;16133;49.486;12.176;2024-03-08T05:05:07;111.55;;;39.75;;
29044;SDS011;16133;49.486;12.176;2024-03-08T05:07:34;109.28;;;42.05;;
29044;SDS011;16133;49.486;12.176;2024-03-08T05:10:00;108.20;;;40.25;;
29044;SDS011;16133;49.486;12.176;2024-03-08T05:12:27;112.90;;;42.28;;
29044;SDS011;16133;49.486;12.176;2024-03-08T05:14:52;113.47;;;40.83;;
29044;SDS011;16133;49.486;12.176;2024-03-08T05:17:18;119.10;;;41.70;;
29044;SDS011;16133;49.486;12.176;2024-03-08T05:19:44;112.50;;;42.92;;
29044;SDS011;16133;49.486;12.176;2024-03-08T05:22:10;106.40;;;38.17;;
29044;SDS011;16133;49.486;12.176;2024-03-08T05:24:35;99.45;;;35.97;;
29044;SDS011;16133;49.486;12.176;2024-03-08T05:27:00;96.63;;;35.70;;
29044;SDS011;16133;49.486;12.176;2024-03-08T05:29:27;95.47;;;34.08;;
29044;SDS011;16133;49.486;12.176;2024-03-08T05:31:53;102.35;;;36.72;;
29044;SDS011;16133;49.486;12.176;2024-03-08T05:34:20;98.28;;;38.05;;
29044;SDS011;16133;49.486;12.176;2024-03-08T05:36:46;112.00;;;39.97;;
29044;SDS011;16133;49.486;12.176;2024-03-08T05:39:14;103.07;;;36.90;;
29044;SDS011;16133;49.486;12.176;2024-03-08T05:41:40;94.65;;;37.65;;
29044;SDS011;16133;49.486;12.176;2024-03-08T05:44:06;89.72;;;32.95;;
29044;SDS011;16133;49.486;12.176;2024-03-08T05:46:32;92.95;;;33.17;;
29044;SDS011;16133;49.486;12.176;2024-03-08T05:48:58;87.47;;;32.38;;
29044;SDS011;16133;49.486;12.176;2024-03-08T05:51:30;85.72;;;35.13;;
29044;SDS011;16133;49.486;12.176;2024-03-08T05:53:56;95.18;;;32.85;;
29044;SDS011;16133;49.486;12.176;2024-03-08T05:56:21;92.40;;;34.00;;
29044;SDS011;16133;49.486;12.176;2024-03-08T05:58:48;87.03;;;34.03;;
29044;SDS011;16133;49.486;12.176;2024-03-08T06:01:15;98.65;;;32.75;;
29044;SDS011;16133;49.486;12.176;2024-03-08T06:03:40;93.72;;;32.70;;
29044;SDS011;16133;49.486;12.176;2024-03-08T06:06:11;90.50;;;32.17;;
29044;SDS011;16133;49.486;12.176;2024-03-08T06:08:40;86.72;;;32.10;;
29044;SDS011;16133;49.486;12.176;2024-03-08T06:11:08;90.38;;;31.55;;
29044;SDS011;16133;49.486;12.176;2024-03-08T06:13:33;89.68;;;34.55;;
29044;SDS011;16133;49.486;12.176;2024-03-08T06:15:59;96.97;;;33.90;;
29044;SDS011;16133;49.486;12.176;2024-03-08T06:18:25;96.63;;;35.08;;
29044;SDS011;16133;49.486;12.176;2024-03-08T06:20:51;99.63;;;33.90;;
29044;SDS011;16133;49.486;12.176;2024-03-08T06:23:16;94.70;;;36.47;;
29044;SDS011;16133;49.486;12.176;2024-03-08T06:25:44;95.68;;;34.83;;
29044;SDS011;16133;49.486;12.176;2024-03-08T06:28:11;94.55;;;33.45;;
29044;SDS011;16133;49.486;12.176;2024-03-08T06:30:36;95.57;;;35.42;;
29044;SDS011;16133;49.486;12.176;2024-03-08T06:33:01;100.65;;;36.92;;
29044;SDS011;16133;49.486;12.176;2024-03-08T06:35:27;104.78;;;39.72;;
29044;SDS011;16133;49.486;12.176;2024-03-08T06:37:53;109.32;;;40.60;;
29044;SDS011;16133;49.486;12.176;2024-03-08T06:40:18;120.57;;;40.75;;
29044;SDS011;16133;49.486;12.176;2024-03-08T06:42:43;114.72;;;41.72;;
29044;SDS011;16133;49.486;12.176;2024-03-08T06:45:09;99.45;;;40.13;;
29044;SDS011;16133;49.486;12.176;2024-03-08T06:47:35;109.35;;;40.72;;
29044;SDS011;16133;49.486;12.176;2024-03-08T06:50:01;109.50;;;42.30;;
29044;SDS011;16133;49.486;12.176;2024-03-08T06:52:27;107.50;;;38.00;;
29044;SDS011;16133;49.486;12.176;2024-03-08T06:54:52;107.18;;;36.90;;
29044;SDS011;16133;49.486;12.176;2024-03-08T06:57:18;101.18;;;36.35;;
29044;SDS011;16133;49.486;12.176;2024-03-08T06:59:47;111.95;;;37.15;;
29044;SDS011;16133;49.486;12.176;2024-03-08T07:02:12;103.03;;;36.42;;
29044;SDS011;16133;49.486;12.176;2024-03-08T07:04:38;113.75;;;40.05;;
29044;SDS011;16133;49.486;12.176;2024-03-08T07:07:04;102.82;;;37.17;;
29044;SDS011;16133;49.486;12.176;2024-03-08T07:09:30;114.78;;;38.38;;
29044;SDS011;16133;49.486;12.176;2024-03-08T07:11:55;98.05;;;36.33;;
29044;SDS011;16133;49.486;12.176;2024-03-08T07:14:24;112.15;;;40.30;;
29044;SDS011;16133;49.486;12.176;2024-03-08T07:16:50;120.35;;;40.88;;
29044;SDS011;16133;49.486;12.176;2024-03-08T07:19:16;124.30;;;40.65;;
29044;SDS011;16133;49.486;12.176;2024-03-08T07:21:45;112.70;;;37.70;;
29044;SDS011;16133;49.486;12.176;2024-03-08T07:24:12;115.18;;;41.25;;
29044;SDS011;16133;49.486;12.176;2024-03-08T07:27:05;103.05;;;35.20;;
29044;SDS011;16133;49.486;12.176;2024-03-08T07:29:32;105.78;;;36.30;;
29044;SDS011;16133;49.486;12.176;2024-03-08T07:31:58;91.95;;;35.55;;
29044;SDS011;16133;49.486;12.176;2024-03-08T07:34:42;103.25;;;34.05;;
29044;SDS011;16133;49.486;12.176;2024-03-08T07:37:08;107.72;;;35.30;;
29044;SDS011;16133;49.486;12.176;2024-03-08T07:39:36;102.78;;;37.58;;
29044;SDS011;16133;49.486;12.176;2024-03-08T07:42:02;102.40;;;36.95;;
29044;SDS011;16133;49.486;12.176;2024-03-08T07:44:28;97.65;;;34.13;;
29044;SDS011;16133;49.486;12.176;2024-03-08T07:46:54;100.38;;;34.10;;
29044;SDS011;16133;49.486;12.176;2024-03-08T07:49:20;93.65;;;31.42;;
29044;SDS011;16133;49.486;12.176;2024-03-08T07:51:45;93.85;;;33.15;;
29044;SDS011;16133;49.486;12.176;2024-03-08T07:54:10;95.93;;;33.05;;
29044;SDS011;16133;49.486;12.176;2024-03-08T07:56:36;89.55;;;31.65;;
29044;SDS011;16133;49.486;12.176;2024-03-08T07:59:01;85.78;;;30.70;;
29044;SDS011;16133;49.486;12.176;2024-03-08T08:01:29;78.65;;;28.70;;
29044;SDS011;16133;49.486;12.176;2024-03-08T08:03:55;72.72;;;28.02;;
29044;SDS011;16133;49.486;12.176;2024-03-08T08:06:21;72.35;;;27.45;;
29044;SDS011;16133;49.486;12.176;2024-03-08T08:08:47;69.68;;;26.83;;
29044;SDS011;16133;49.486;12.176;2024-03-08T08:11:13;67.70;;;23.92;;
29044;SDS011;16133;49.486;12.176;2024-03-08T08:13:40;63.15;;;25.25;;
29044;SDS011;16133;49.486;12.176;2024-03-08T08:16:08;55.38;;;22.38;;
29044;SDS011;16133;49.486;12.176;2024-03-08T08:18:34;57.97;;;22.75;;
29044;SDS011;16133;49.486;12.176;2024-03-08T08:21:00;56.00;;;22.48;;
29044;SDS011;16133;49.486;12.176;2024-03-08T08:23:25;57.55;;;23.15;;
29044;SDS011;16133;49.486;12.176;2024-03-08T08:25:51;53.50;;;21.27;;
29044;SDS011;16133;49.486;12.176;2024-03-08T08:28:16;52.38;;;20.15;;
29044;SDS011;16133;49.486;12.176;2024-03-08T08:30:43;55.60;;;21.15;;
29044;SDS011;16133;49.486;12.176;2024-03-08T08:33:08;53.33;;;20.58;;
29044;SDS011;16133;49.486;12.176;2024-03-08T08:35:34;51.63;;;20.70;;
29044;SDS011;16133;49.486;12.176;2024-03-08T08:37:59;45.25;;;18.55;;
29044;SDS011;16133;49.486;12.176;2024-03-08T08:40:25;43.15;;;17.63;;
29044;SDS011;16133;49.486;12.176;2024-03-08T08:42:50;47.38;;;19.75;;
29044;SDS011;16133;49.486;12.176;2024-03-08T08:45:17;49.30;;;18.25;;
29044;SDS011;16133;49.486;12.176;2024-03-08T08:47:46;55.63;;;21.92;;
29044;SDS011;16133;49.486;12.176;2024-03-08T08:50:12;48.58;;;18.17;;
29044;SDS011;16133;49.486;12.176;2024-03-08T08:52:38;42.25;;;18.20;;
29044;SDS011;16133;49.486;12.176;2024-03-08T08:55:04;45.45;;;17.83;;
29044;SDS011;16133;49.486;12.176;2024-03-08T08:57:31;43.50;;;18.40;;
29044;SDS011;16133;49.486;12.176;2024-03-08T08:59:58;39.42;;;17.42;;
29044;SDS011;16133;49.486;12.176;2024-03-08T09:02:23;48.00;;;19.38;;
29044;SDS011;16133;49.486;12.176;2024-03-08T09:04:50;42.75;;;18.10;;
29044;SDS011;16133;49.486;12.176;2024-03-08T09:07:16;49.58;;;17.40;;
29044;SDS011;16133;49.486;12.176;2024-03-08T09:09:43;41.47;;;17.25;;
29044;SDS011;16133;49.486;12.176;2024-03-08T09:12:09;44.67;;;17.17;;
29044;SDS011;16133;49.486;12.176;2024-03-08T09:14:38;40.80;;;16.27;;
29044;SDS011;16133;49.486;12.176;2024-03-08T09:17:07;44.08;;;16.95;;
29044;SDS011;16133;49.486;12.176;2024-03-08T09:19:35;38.40;;;17.17;;
29044;SDS011;16133;49.486;12.176;2024-03-08T09:22:01;38.67;;;16.42;;
29044;SDS011;16133;49.486;12.176;2024-03-08T09:24:29;39.30;;;16.02;;
29044;SDS011;16133;49.486;12.176;2024-03-08T09:26:54;41.45;;;17.17;;
29044;SDS011;16133;49.486;12.176;2024-03-08T09:29:20;35.83;;;15.63;;
29044;SDS011;16133;49.486;12.176;2024-03-08T09:31:45;36.95;;;16.40;;
29044;SDS011;16133;49.486;12.176;2024-03-08T09:34:12;39.10;;;15.25;;
29044;SDS011;16133;49.486;12.176;2024-03-08T09:36:37;41.45;;;16.15;;
29044;SDS011;16133;49.486;12.176;2024-03-08T09:39:02;42.33;;;17.80;;
29044;SDS011;16133;49.486;12.176;2024-03-08T09:41:28;35.22;;;14.63;;
29044;SDS011;16133;49.486;12.176;2024-03-08T09:43:55;36.55;;;16.13;;
29044;SDS011;16133;49.486;12.176;2024-03-08T09:46:22;32.70;;;14.55;;
29044;SDS011;16133;49.486;12.176;2024-03-08T09:48:48;34.38;;;14.10;;
29044;SDS011;16133;49.486;12.176;2024-03-08T09:51:13;35.95;;;14.82;;
29044;SDS011;16133;49.486;12.176;2024-03-08T09:53:40;40.55;;;15.00;;
29044;SDS011;16133;49.486;12.176;2024-03-08T09:56:09;31.98;;;13.77;;
29044;SDS011;16133;49.486;12.176;2024-03-08T09:58:37;37.85;;;13.82;;
29044;SDS011;16133;49.486;12.176;2024-03-08T10:01:17;31.40;;;13.73;;
29044;SDS011;16133;49.486;12.176;2024-03-08T10:03:43;31.77;;;14.65;;
29044;SDS011;16133;49.486;12.176;2024-03-08T10:06:08;32.45;;;14.73;;
29044;SDS011;16133;49.486;12.176;2024-03-08T10:08:35;31.63;;;14.30;;
29044;SDS011;16133;49.486;12.176;2024-03-08T10:11:01;33.13;;;14.10;;
29044;SDS011;16133;49.486;12.176;2024-03-08T10:13:27;37.80;;;15.88;;
29044;SDS011;16133;49.486;12.176;2024-03-08T10:15:53;36.80;;;15.07;;
29044;SDS011;16133;49.486;12.176;2024-03-08T10:18:19;38.22;;;16.27;;
29044;SDS011;16133;49.486;12.176;2024-03-08T10:20:44;29.05;;;12.40;;
29044;SDS011;16133;49.486;12.176;2024-03-08T10:23:09;32.20;;;13.93;;
29044;SDS011;16133;49.486;12.176;2024-03-08T10:25:35;31.83;;;13.27;;
29044;SDS011;16133;49.486;12.176;2024-03-08T10:28:04;30.83;;;12.55;;
29044;SDS011;16133;49.486;12.176;2024-03-08T10:30:30;31.13;;;13.05;;
29044;SDS011;16133;49.486;12.176;2024-03-08T10:32:55;33.03;;;13.95;;
29044;SDS011;16133;49.486;12.176;2024-03-08T10:35:21;31.77;;;14.18;;
29044;SDS011;16133;49.486;12.176;2024-03-08T10:37:48;28.27;;;12.32;;
29044;SDS011;16133;49.486;12.176;2024-03-08T10:40:18;25.40;;;12.30;;
29044;SDS011;16133;49.486;12.176;2024-03-08T10:42:54;33.40;;;13.85;;
29044;SDS011;16133;49.486;12.176;2024-03-08T10:45:39;26.58;;;12.05;;
29044;SDS011;16133;49.486;12.176;2024-03-08T10:50:59;28.80;;;11.93;;
29044;SDS011;16133;49.486;12.176;2024-03-08T10:53:27;29.30;;;12.30;;
29044;SDS011;16133;49.486;12.176;2024-03-08T10:55:55;24.98;;;12.10;;
29044;SDS011;16133;49.486;12.176;2024-03-08T10:58:21;26.08;;;11.35;;
29044;SDS011;16133;49.486;12.176;2024-03-08T11:00:51;31.58;;;12.35;;
29044;SDS011;16133;49.486;12.176;2024-03-08T11:07:10;29.85;;;11.68;;
29044;SDS011;16133;49.486;12.176;2024-03-08T11:15:02;25.00;;;11.07;;
29044;SDS011;16133;49.486;12.176;2024-03-08T11:20:04;24.67;;;11.27;;
29044;SDS011;16133;49.486;12.176;2024-03-08T11:22:40;24.13;;;11.85;;
29044;SDS011;16133;49.486;12.176;2024-03-08T11:25:08;24.52;;;11.35;;
29044;SDS011;16133;49.486;12.176;2024-03-08T11:27:35;22.15;;;9.90;;
29044;SDS011;16133;49.486;12.176;2024-03-08T11:30:05;23.05;;;11.32;;
29044;SDS011;16133;49.486;12.176;2024-03-08T11:32:44;24.27;;;11.05;;
29044;SDS011;16133;49.486;12.176;2024-03-08T11:35:31;24.50;;;9.88;;
29044;SDS011;16133;49.486;12.176;2024-03-08T11:37:57;22.58;;;9.95;;
29044;SDS011;16133;49.486;12.176;2024-03-08T11:40:25;19.88;;;9.68;;
29044;SDS011;16133;49.486;12.176;2024-03-08T11:42:51;24.50;;;11.43;;
29044;SDS011;16133;49.486;12.176;2024-03-08T11:45:17;22.55;;;9.75;;
29044;SDS011;16133;49.486;12.176;2024-03-08T11:47:43;20.60;;;9.73;;
29044;SDS011;16133;49.486;12.176;2024-03-08T11:50:11;22.38;;;9.63;;
29044;SDS011;16133;49.486;12.176;2024-03-08T11:52:37;20.48;;;9.73;;
29044;SDS011;16133;49.486;12.176;2024-03-08T11:55:03;24.08;;;11.02;;
29044;SDS011;16133;49.486;12.176;2024-03-08T11:57:30;21.52;;;9.82;;
29044;SDS011;16133;49.486;12.176;2024-03-08T11:59:57;23.08;;;10.23;;
29044;SDS011;16133;49.486;12.176;2024-03-08T12:02:24;25.75;;;11.43;;
29044;SDS011;16133;49.486;12.176;2024-03-08T12:04:56;24.77;;;11.20;;
29044;SDS011;16133;49.486;12.176;2024-03-08T12:07:23;21.63;;;9.77;;
29044;SDS011;16133;49.486;12.176;2024-03-08T12:12:53;18.60;;;9.60;;
29044;SDS011;16133;49.486;12.176;2024-03-08T12:15:21;22.67;;;10.18;;
29044;SDS011;16133;49.486;12.176;2024-03-08T12:17:49;22.85;;;10.00;;
29044;SDS011;16133;49.486;12.176;2024-03-08T12:20:19;23.15;;;9.90;;
29044;SDS011;16133;49.486;12.176;2024-03-08T12:22:53;23.60;;;10.25;;
29044;SDS011;16133;49.486;12.176;2024-03-08T12:25:21;25.13;;;11.85;;
29044;SDS011;16133;49.486;12.176;2024-03-08T12:27:47;25.50;;;11.10;;
29044;SDS011;16133;49.486;12.176;2024-03-08T12:30:19;19.88;;;9.65;;
29044;SDS011;16133;49.486;12.176;2024-03-08T12:35:21;20.42;;;9.65;;
29044;SDS011;16133;49.486;12.176;2024-03-08T12:37:48;18.63;;;8.60;;
29044;SDS011;16133;49.486;12.176;2024-03-08T12:40:16;15.20;;;8.27;;
29044;SDS011;16133;49.486;12.176;2024-03-08T12:42:43;19.13;;;8.80;;
29044;SDS011;16133;49.486;12.176;2024-03-08T12:45:09;19.02;;;9.35;;
29044;SDS011;16133;49.486;12.176;2024-03-08T12:47:35;20.17;;;9.73;;
29044;SDS011;16133;49.486;12.176;2024-03-08T12:50:01;23.27;;;9.27;;
29044;SDS011;16133;49.486;12.176;2024-03-08T12:52:28;24.38;;;10.35;;
29044;SDS011;16133;49.486;12.176;2024-03-08T12:54:55;19.00;;;9.98;;
29044;SDS011;16133;49.486;12.176;2024-03-08T12:57:20;21.10;;;9.60;;
29044;SDS011;16133;49.486;12.176;2024-03-08T12:59:46;23.67;;;11.02;;
29044;SDS011;16133;49.486;12.176;2024-03-08T13:02:11;20.17;;;9.95;;
29044;SDS011;16133;49.486;12.176;2024-03-08T13:04:37;24.13;;;10.50;;
29044;SDS011;16133;49.486;12.176;2024-03-08T13:07:02;20.25;;;9.90;;
29044;SDS011;16133;49.486;12.176;2024-03-08T13:09:28;20.60;;;9.45;;
29044;SDS011;16133;49.486;12.176;2024-03-08T13:11:54;24.65;;;11.15;;
29044;SDS011;16133;49.486;12.176;2024-03-08T13:14:20;23.75;;;10.15;;
29044;SDS011;16133;49.486;12.176;2024-03-08T13:16:46;20.83;;;10.27;;
29044;SDS011;16133;49.486;12.176;2024-03-08T13:19:13;18.88;;;9.85;;
29044;SDS011;16133;49.486;12.176;2024-03-08T13:21:38;19.40;;;10.15;;
29044;SDS011;16133;49.486;12.176;2024-03-08T13:24:04;22.15;;;9.93;;
29044;SDS011;16133;49.486;12.176;2024-03-08T13:26:30;20.90;;;9.43;;
29044;SDS011;16133;49.486;12.176;2024-03-08T13:28:58;25.10;;;11.02;;
29044;SDS011;16133;49.486;12.176;2024-03-08T13:31:24;19.00;;;8.98;;
29044;SDS011;16133;49.486;12.176;2024-03-08T13:33:49;20.40;;;10.88;;
29044;SDS011;16133;49.486;12.176;2024-03-08T13:36:16;21.30;;;11.07;;
29044;SDS011;16133;49.486;12.176;2024-03-08T13:38:46;17.30;;;8.80;;
29044;SDS011;16133;49.486;12.176;2024-03-08T13:41:14;27.38;;;12.52;;
29044;SDS011;16133;49.486;12.176;2024-03-08T13:43:41;21.98;;;11.00;;
29044;SDS011;16133;49.486;12.176;2024-03-08T13:46:10;17.65;;;9.30;;
29044;SDS011;16133;49.486;12.176;2024-03-08T15:08:03;21.75;;;9.85;;
29044;SDS011;16133;49.486;12.176;2024-03-08T15:10:34;21.30;;;10.07;;
29044;SDS011;16133;49.486;12.176;2024-03-08T15:13:00;24.05;;;10.15;;
29044;SDS011;16133;49.486;12.176;2024-03-08T15:15:27;26.48;;;9.77;;
29044;SDS011;16133;49.486;12.176;2024-03-08T15:17:55;22.85;;;11.10;;
29044;SDS011;16133;49.486;12.176;2024-03-08T15:20:22;20.75;;;10.20;;
29044;SDS011;16133;49.486;12.176;2024-03-08T15:22:53;21.35;;;11.00;;
29044;SDS011;16133;49.486;12.176;2024-03-08T15:25:23;22.05;;;10.20;;
29044;SDS011;16133;49.486;12.176;2024-03-08T15:27:52;23.65;;;10.55;;
29044;SDS011;16133;49.486;12.176;2024-03-08T15:30:18;23.40;;;10.60;;
29044;SDS011;16133;49.486;12.176;2024-03-08T15:32:47;18.90;;;9.05;;
29044;SDS011;16133;49.486;12.176;2024-03-08T15:35:15;23.42;;;10.32;;
29044;SDS011;16133;49.486;12.176;2024-03-08T15:37:41;21.70;;;10.50;;
29044;SDS011;16133;49.486;12.176;2024-03-08T15:40:13;23.20;;;10.82;;
29044;SDS011;16133;49.486;12.176;2024-03-08T15:45:14;26.58;;;12.25;;
29044;SDS011;16133;49.486;12.176;2024-03-08T15:47:41;19.77;;;10.15;;